Pucha Pucha, Argentina
Current Conditions -  °F | °C
As of 1:00 PM on Sunday 23 Nov 2014 (Local Time) from SCSE Reporting Station
Overcast Overcast  
Wind Chill: 14°   Ceiling: 1700
Heat Index: 14°   Visibility: 6mi
Dew Point: 11°   Wind: 7mph
Humidity: 82%   Direction: 270°W
Pressure: 30.03"   Gusts: NA
Location:  28.34°S, 69.22°W
Report Text: SCSE 231600Z 27006KT 9999 FEW012 OVC017 14/11 Q1017
Loading
Personal Weather Stations






























Interactive Weather Map New forecast layout! Learn more

10-Day Weather Forecast

Advertisements
Track Severe Weather on mobile